sensor_id;sensor_type;location;lat;lon;timestamp;pressure;altitude;pressure_sealevel;temperature;humidity
68889;BME280;55930;47.412;8.790;2024-01-30T00:00:01;96010.66;;;0.91;100.00
68889;BME280;55930;47.412;8.790;2024-01-30T00:03:21;96012.84;;;0.89;100.00
68889;BME280;55930;47.412;8.790;2024-01-30T00:06:42;96010.66;;;0.91;100.00
68889;BME280;55930;47.412;8.790;2024-01-30T00:10:02;96014.34;;;0.86;100.00
68889;BME280;55930;47.412;8.790;2024-01-30T00:13:26;96012.50;;;0.87;100.00
68889;BME280;55930;47.412;8.790;2024-01-30T00:16:47;96005.47;;;0.94;100.00
68889;BME280;55930;47.412;8.790;2024-01-30T00:20:07;96003.16;;;0.89;100.00
68889;BME280;55930;47.412;8.790;2024-01-30T00:23:29;96009.06;;;0.79;100.00
68889;BME280;55930;47.412;8.790;2024-01-30T00:26:49;96008.59;;;0.70;100.00
68889;BME280;55930;47.412;8.790;2024-01-30T00:30:10;96008.19;;;0.68;100.00
68889;BME280;55930;47.412;8.790;2024-01-30T00:33:31;96011.22;;;0.73;100.00
68889;BME280;55930;47.412;8.790;2024-01-30T00:36:51;96008.97;;;0.72;100.00
68889;BME280;55930;47.412;8.790;2024-01-30T00:40:14;96023.94;;;0.75;100.00
68889;BME280;55930;47.412;8.790;2024-01-30T00:43:36;96015.34;;;0.74;100.00
68889;BME280;55930;47.412;8.790;2024-01-30T00:46:56;96008.97;;;0.72;100.00
68889;BME280;55930;47.412;8.790;2024-01-30T00:50:17;96010.91;;;0.79;100.00
68889;BME280;55930;47.412;8.790;2024-01-30T00:53:37;96011.56;;;0.72;100.00
68889;BME280;55930;47.412;8.790;2024-01-30T00:56:58;96009.44;;;0.81;100.00
68889;BME280;55930;47.412;8.790;2024-01-30T01:00:18;96013.47;;;0.75;100.00
68889;BME280;55930;47.412;8.790;2024-01-30T01:03:41;96009.06;;;0.79;100.00
68889;BME280;55930;47.412;8.790;2024-01-30T01:07:03;96014.66;;;0.81;100.00
68889;BME280;55930;47.412;8.790;2024-01-30T01:10:24;96018.47;;;0.87;100.00
68889;BME280;55930;47.412;8.790;2024-01-30T01:13:44;96016.91;;;0.79;100.00
68889;BME280;55930;47.412;8.790;2024-01-30T01:17:05;96018.00;;;0.78;100.00
68889;BME280;55930;47.412;8.790;2024-01-30T01:20:25;96024.34;;;0.81;100.00
68889;BME280;55930;47.412;8.790;2024-01-30T01:23:45;96019.09;;;0.77;100.00
68889;BME280;55930;47.412;8.790;2024-01-30T01:27:08;96023.75;;;0.98;100.00
68889;BME280;55930;47.412;8.790;2024-01-30T01:30:29;96012.84;;;0.89;100.00
68889;BME280;55930;47.412;8.790;2024-01-30T01:33:50;96012.84;;;0.89;100.00
68889;BME280;55930;47.412;8.790;2024-01-30T01:37:12;96006.88;;;0.85;100.00
68889;BME280;55930;47.412;8.790;2024-01-30T01:40:32;96004.59;;;0.83;100.00
68889;BME280;55930;47.412;8.790;2024-01-30T01:43:53;96012.50;;;0.87;100.00
68889;BME280;55930;47.412;8.790;2024-01-30T01:47:14;96006.88;;;0.85;100.00
68889;BME280;55930;47.412;8.790;2024-01-30T01:50:38;96001.69;;;0.92;100.00
68889;BME280;55930;47.412;8.790;2024-01-30T01:54:03;95997.28;;;0.96;100.00
68889;BME280;55930;47.412;8.790;2024-01-30T01:57:23;95993.50;;;0.93;100.00
68889;BME280;55930;47.412;8.790;2024-01-30T02:00:44;95995.31;;;0.86;100.00
68889;BME280;55930;47.412;8.790;2024-01-30T02:04:07;95991.66;;;0.94;100.00
68889;BME280;55930;47.412;8.790;2024-01-30T02:07:28;96000.19;;;0.87;100.00
68889;BME280;55930;47.412;8.790;2024-01-30T02:10:48;96008.78;;;0.91;100.00
68889;BME280;55930;47.412;8.790;2024-01-30T02:14:11;95998.63;;;0.83;100.00
68889;BME280;55930;47.412;8.790;2024-01-30T02:17:34;96004.59;;;0.83;100.00
68889;BME280;55930;47.412;8.790;2024-01-30T02:20:56;96002.34;;;0.82;100.00
68889;BME280;55930;47.412;8.790;2024-01-30T02:24:18;95996.56;;;0.62;100.00
68889;BME280;55930;47.412;8.790;2024-01-30T02:27:38;95999.66;;;0.71;100.00
68889;BME280;55930;47.412;8.790;2024-01-30T02:30:59;96000.41;;;0.71;100.00
68889;BME280;55930;47.412;8.790;2024-01-30T02:34:19;96001.94;;;0.76;100.00
68889;BME280;55930;47.412;8.790;2024-01-30T02:37:40;95995.19;;;0.71;100.00
68889;BME280;55930;47.412;8.790;2024-01-30T02:41:00;95992.88;;;0.63;100.00
68889;BME280;55930;47.412;8.790;2024-01-30T02:44:21;95989.91;;;0.68;100.00
68889;BME280;55930;47.412;8.790;2024-01-30T02:47:41;95996.66;;;0.72;100.00
68889;BME280;55930;47.412;8.790;2024-01-30T02:51:02;95990.31;;;0.70;100.00
68889;BME280;55930;47.412;8.790;2024-01-30T02:54:22;95983.59;;;0.69;100.00
68889;BME280;55930;47.412;8.790;2024-01-30T02:57:42;95998.16;;;0.70;100.00
68889;BME280;55930;47.412;8.790;2024-01-30T03:01:06;95986.88;;;0.62;100.00
68889;BME280;55930;47.412;8.790;2024-01-30T03:04:26;95988.69;;;0.55;100.00
68889;BME280;55930;47.412;8.790;2024-01-30T03:07:47;95981.31;;;0.64;100.00
68889;BME280;55930;47.412;8.790;2024-01-30T03:11:07;95984.22;;;0.59;100.00
68889;BME280;55930;47.412;8.790;2024-01-30T03:14:30;95984.97;;;0.56;100.00
68889;BME280;55930;47.412;8.790;2024-01-30T03:17:50;95980.56;;;0.67;100.00
68889;BME280;55930;47.412;8.790;2024-01-30T03:21:11;95975.72;;;0.65;100.00
68889;BME280;55930;47.412;8.790;2024-01-30T03:24:31;95981.25;;;0.60;100.00
68889;BME280;55930;47.412;8.790;2024-01-30T03:27:52;95974.72;;;0.40;100.00
68889;BME280;55930;47.412;8.790;2024-01-30T03:31:15;95981.00;;;0.35;100.00
68889;BME280;55930;47.412;8.790;2024-01-30T03:34:35;95975.78;;;0.35;100.00
68889;BME280;55930;47.412;8.790;2024-01-30T03:37:56;95979.66;;;0.49;100.00
68889;BME280;55930;47.412;8.790;2024-01-30T03:41:16;95980.38;;;0.46;100.00
68889;BME280;55930;47.412;8.790;2024-01-30T03:44:37;95974.34;;;0.42;100.00
68889;BME280;55930;47.412;8.790;2024-01-30T03:47:57;95968.03;;;0.43;100.00
68889;BME280;55930;47.412;8.790;2024-01-30T03:51:18;95979.84;;;0.33;100.00
68889;BME280;55930;47.412;8.790;2024-01-30T03:54:38;95975.03;;;0.31;100.00
68889;BME280;55930;47.412;8.790;2024-01-30T03:57:59;95983.69;;;0.43;100.00
68889;BME280;55930;47.412;8.790;2024-01-30T04:01:19;95979.34;;;0.57;100.00
68889;BME280;55930;47.412;8.790;2024-01-30T04:04:39;95984.78;;;0.38;100.00
68889;BME280;55930;47.412;8.790;2024-01-30T04:08:00;95981.09;;;0.43;100.00
68889;BME280;55930;47.412;8.790;2024-01-30T04:11:23;95984.66;;;0.27;100.00
68889;BME280;55930;47.412;8.790;2024-01-30T04:14:43;95982.28;;;0.15;100.00
68889;BME280;55930;47.412;8.790;2024-01-30T04:18:04;95978.94;;;0.15;100.00
68889;BME280;55930;47.412;8.790;2024-01-30T04:21:25;95979.00;;;0.22;100.00
68889;BME280;55930;47.412;8.790;2024-01-30T04:24:45;95974.13;;;0.20;100.00
68889;BME280;55930;47.412;8.790;2024-01-30T04:28:08;95969.53;;;0.07;100.00
68889;BME280;55930;47.412;8.790;2024-01-30T04:31:28;95971.81;;;0.12;100.00
68889;BME280;55930;47.412;8.790;2024-01-30T04:34:49;95966.25;;;0.17;100.00
68889;BME280;55930;47.412;8.790;2024-01-30T04:38:09;95969.53;;;0.10;100.00
68889;BME280;55930;47.412;8.790;2024-01-30T04:41:29;95968.44;;;0.11;100.00
68889;BME280;55930;47.412;8.790;2024-01-30T04:44:51;95969.16;;;0.08;100.00
68889;BME280;55930;47.412;8.790;2024-01-30T04:48:12;95973.19;;;0.02;100.00
68889;BME280;55930;47.412;8.790;2024-01-30T04:51:34;95974.75;;;0.07;100.00
68889;BME280;55930;47.412;8.790;2024-01-30T04:54:55;95975.13;;;0.09;100.00
68889;BME280;55930;47.412;8.790;2024-01-30T04:58:15;95972.16;;;0.10;100.00
68889;BME280;55930;47.412;8.790;2024-01-30T05:01:36;95972.41;;;-0.02;100.00
68889;BME280;55930;47.412;8.790;2024-01-30T05:04:58;95977.41;;;-0.20;100.00
68889;BME280;55930;47.412;8.790;2024-01-30T05:08:18;95980.09;;;-0.39;100.00
68889;BME280;55930;47.412;8.790;2024-01-30T05:11:42;95989.59;;;-0.54;100.00
68889;BME280;55930;47.412;8.790;2024-01-30T05:15:03;95991.09;;;-0.53;100.00
68889;BME280;55930;47.412;8.790;2024-01-30T05:18:23;95999.72;;;-0.49;100.00
68889;BME280;55930;47.412;8.790;2024-01-30T05:21:44;95998.91;;;-0.53;100.00
68889;BME280;55930;47.412;8.790;2024-01-30T05:25:06;95995.81;;;-0.62;100.00
68889;BME280;55930;47.412;8.790;2024-01-30T05:28:26;95996.38;;;-0.49;100.00
68889;BME280;55930;47.412;8.790;2024-01-30T05:31:47;96009.25;;;-0.33;100.00
68889;BME280;55930;47.412;8.790;2024-01-30T05:35:07;96005.47;;;-0.36;100.00
68889;BME280;55930;47.412;8.790;2024-01-30T05:38:28;96001.63;;;-0.46;100.00
68889;BME280;55930;47.412;8.790;2024-01-30T05:41:49;96012.03;;;-0.46;100.00
68889;BME280;55930;47.412;8.790;2024-01-30T05:45:10;96012.28;;;-0.28;100.00
68889;BME280;55930;47.412;8.790;2024-01-30T05:48:30;96010.34;;;-0.34;100.00
68889;BME280;55930;47.412;8.790;2024-01-30T05:51:51;96012.69;;;-0.26;100.00
68889;BME280;55930;47.412;8.790;2024-01-30T05:55:12;96013.75;;;-0.30;100.00
68889;BME280;55930;47.412;8.790;2024-01-30T05:58:35;96013.72;;;-0.34;100.00
68889;BME280;55930;47.412;8.790;2024-01-30T06:01:57;96014.47;;;-0.33;100.00
68889;BME280;55930;47.412;8.790;2024-01-30T06:05:18;96011.53;;;-0.28;100.00
68889;BME280;55930;47.412;8.790;2024-01-30T06:08:38;96025.03;;;-0.23;100.00
68889;BME280;55930;47.412;8.790;2024-01-30T06:11:58;96021.28;;;-0.25;100.00
68889;BME280;55930;47.412;8.790;2024-01-30T06:15:19;96025.00;;;-0.26;100.00
68889;BME280;55930;47.412;8.790;2024-01-30T06:18:39;96025.69;;;-0.29;100.00
68889;BME280;55930;47.412;8.790;2024-01-30T06:22:00;96026.44;;;-0.29;100.00
68889;BME280;55930;47.412;8.790;2024-01-30T06:25:20;96024.09;;;-0.08;100.00
68889;BME280;55930;47.412;8.790;2024-01-30T06:28:41;96026.28;;;-0.13;100.00
68889;BME280;55930;47.412;8.790;2024-01-30T06:32:01;96028.03;;;-0.21;100.00
68889;BME280;55930;47.412;8.790;2024-01-30T06:35:22;96031.59;;;-0.32;100.00
68889;BME280;55930;47.412;8.790;2024-01-30T06:38:42;96025.34;;;-0.28;100.00
68889;BME280;55930;47.412;8.790;2024-01-30T06:42:03;96022.31;;;-0.30;100.00
68889;BME280;55930;47.412;8.790;2024-01-30T06:45:23;96035.00;;;-0.28;100.00
68889;BME280;55930;47.412;8.790;2024-01-30T06:48:46;96035.91;;;-0.17;100.00
68889;BME280;55930;47.412;8.790;2024-01-30T06:52:06;96042.72;;;-0.09;100.00
68889;BME280;55930;47.412;8.790;2024-01-30T06:55:27;96044.63;;;-0.06;100.00
68889;BME280;55930;47.412;8.790;2024-01-30T06:58:48;96049.22;;;0.04;100.00
68889;BME280;55930;47.412;8.790;2024-01-30T07:02:09;96044.00;;;0.04;100.00
68889;BME280;55930;47.412;8.790;2024-01-30T07:05:30;96050.50;;;0.17;100.00
68889;BME280;55930;47.412;8.790;2024-01-30T07:08:55;96049.53;;;0.29;100.00
68889;BME280;55930;47.412;8.790;2024-01-30T07:12:18;96051.97;;;0.48;100.00
68889;BME280;55930;47.412;8.790;2024-01-30T07:15:38;96050.75;;;0.72;100.00
68889;BME280;55930;47.412;8.790;2024-01-30T07:18:59;96050.16;;;0.86;100.00
68889;BME280;55930;47.412;8.790;2024-01-30T07:22:19;96049.13;;;0.97;100.00
68889;BME280;55930;47.412;8.790;2024-01-30T07:25:41;96055.44;;;0.93;100.00
68889;BME280;55930;47.412;8.790;2024-01-30T07:29:01;96056.06;;;0.79;100.00
68889;BME280;55930;47.412;8.790;2024-01-30T07:32:24;96054.91;;;0.76;100.00
68889;BME280;55930;47.412;8.790;2024-01-30T07:35:47;96057.03;;;1.01;100.00
68889;BME280;55930;47.412;8.790;2024-01-30T07:39:08;96060.09;;;1.13;100.00
68889;BME280;55930;47.412;8.790;2024-01-30T07:42:28;96053.78;;;1.59;100.00
68889;BME280;55930;47.412;8.790;2024-01-30T07:45:48;96062.41;;;2.31;100.00
68889;BME280;55930;47.412;8.790;2024-01-30T07:49:09;96055.91;;;3.44;100.00
68889;BME280;55930;47.412;8.790;2024-01-30T07:52:30;96052.94;;;3.31;100.00
68889;BME280;55930;47.412;8.790;2024-01-30T07:55:52;96047.28;;;3.72;100.00
68889;BME280;55930;47.412;8.790;2024-01-30T07:59:12;96051.81;;;3.39;100.00
68889;BME280;55930;47.412;8.790;2024-01-30T08:02:33;96047.31;;;3.51;100.00
68889;BME280;55930;47.412;8.790;2024-01-30T08:05:53;96035.91;;;4.28;100.00
68889;BME280;55930;47.412;8.790;2024-01-30T08:09:14;96024.13;;;6.73;100.00
68889;BME280;55930;47.412;8.790;2024-01-30T08:12:36;96020.81;;;5.12;100.00
68889;BME280;55930;47.412;8.790;2024-01-30T08:15:57;96018.53;;;5.18;100.00
68889;BME280;55930;47.412;8.790;2024-01-30T08:19:17;96020.50;;;6.33;100.00
68889;BME280;55930;47.412;8.790;2024-01-30T08:22:38;96016.16;;;6.16;100.00
68889;BME280;55930;47.412;8.790;2024-01-30T08:26:00;96013.47;;;6.84;100.00
68889;BME280;55930;47.412;8.790;2024-01-30T08:29:20;96020.66;;;6.80;100.00
68889;BME280;55930;47.412;8.790;2024-01-30T08:32:41;96012.31;;;7.35;100.00
68889;BME280;55930;47.412;8.790;2024-01-30T08:36:01;96009.34;;;8.19;100.00
68889;BME280;55930;47.412;8.790;2024-01-30T08:39:24;95997.28;;;8.58;100.00
68889;BME280;55930;47.412;8.790;2024-01-30T08:42:45;95996.50;;;8.77;100.00
68889;BME280;55930;47.412;8.790;2024-01-30T08:46:05;95997.03;;;9.04;100.00
68889;BME280;55930;47.412;8.790;2024-01-30T08:49:25;96001.19;;;9.38;98.48
68889;BME280;55930;47.412;8.790;2024-01-30T08:52:46;95997.59;;;9.60;89.75
68889;BME280;55930;47.412;8.790;2024-01-30T08:56:06;96001.53;;;10.43;84.61
68889;BME280;55930;47.412;8.790;2024-01-30T08:59:27;96000.38;;;10.44;82.08
68889;BME280;55930;47.412;8.790;2024-01-30T09:02:47;95997.06;;;10.27;81.34
68889;BME280;55930;47.412;8.790;2024-01-30T09:06:09;96002.91;;;11.61;80.31
68889;BME280;55930;47.412;8.790;2024-01-30T09:09:30;96002.06;;;12.42;73.27
68889;BME280;55930;47.412;8.790;2024-01-30T09:12:50;95999.28;;;13.48;68.73
68889;BME280;55930;47.412;8.790;2024-01-30T09:16:11;95993.50;;;14.49;61.22
68889;BME280;55930;47.412;8.790;2024-01-30T09:19:31;95994.84;;;13.54;58.58
68889;BME280;55930;47.412;8.790;2024-01-30T09:22:51;95984.19;;;14.08;59.51
68889;BME280;55930;47.412;8.790;2024-01-30T09:26:12;95992.94;;;14.18;56.12
68889;BME280;55930;47.412;8.790;2024-01-30T09:29:32;95989.97;;;13.79;56.56
68889;BME280;55930;47.412;8.790;2024-01-30T09:32:54;95995.44;;;12.78;57.43
68889;BME280;55930;47.412;8.790;2024-01-30T09:36:14;95992.91;;;14.36;54.97
68889;BME280;55930;47.412;8.790;2024-01-30T09:39:40;95988.91;;;15.96;53.33
68889;BME280;55930;47.412;8.790;2024-01-30T09:43:00;95974.53;;;17.11;48.18
68889;BME280;55930;47.412;8.790;2024-01-30T09:46:21;95965.16;;;18.54;45.38
68889;BME280;55930;47.412;8.790;2024-01-30T09:49:44;95969.94;;;19.02;44.33
68889;BME280;55930;47.412;8.790;2024-01-30T09:53:05;95969.59;;;17.80;44.02
68889;BME280;55930;47.412;8.790;2024-01-30T09:56:29;95987.16;;;16.61;47.26
68889;BME280;55930;47.412;8.790;2024-01-30T09:59:49;95975.88;;;16.87;48.71
68889;BME280;55930;47.412;8.790;2024-01-30T10:03:14;95976.72;;;17.48;45.51
68889;BME280;55930;47.412;8.790;2024-01-30T10:06:35;95975.88;;;16.72;46.70
68889;BME280;55930;47.412;8.790;2024-01-30T10:09:56;95963.13;;;17.92;46.51
68889;BME280;55930;47.412;8.790;2024-01-30T10:13:16;95959.75;;;18.75;42.98
68889;BME280;55930;47.412;8.790;2024-01-30T10:16:37;95948.13;;;19.96;40.53
68889;BME280;55930;47.412;8.790;2024-01-30T10:19:57;95989.28;;;18.43;43.15
68889;BME280;55930;47.412;8.790;2024-01-30T10:23:18;95996.38;;;16.45;46.80
68889;BME280;55930;47.412;8.790;2024-01-30T10:26:39;95987.22;;;17.66;46.73
68889;BME280;55930;47.412;8.790;2024-01-30T10:30:02;95930.63;;;21.64;39.82
68889;BME280;55930;47.412;8.790;2024-01-30T10:33:24;95950.97;;;19.65;40.85
68889;BME280;55930;47.412;8.790;2024-01-30T10:36:46;95946.19;;;18.58;42.45
68889;BME280;55930;47.412;8.790;2024-01-30T10:40:13;95958.41;;;18.59;42.72
68889;BME280;55930;47.412;8.790;2024-01-30T10:43:40;95954.47;;;17.62;43.28
68889;BME280;55930;47.412;8.790;2024-01-30T10:47:09;95977.69;;;16.36;45.73
68889;BME280;55930;47.412;8.790;2024-01-30T10:50:32;95971.41;;;15.48;48.64
68889;BME280;55930;47.412;8.790;2024-01-30T10:53:55;95967.16;;;15.65;49.22
68889;BME280;55930;47.412;8.790;2024-01-30T10:57:16;95962.94;;;16.70;46.73
68889;BME280;55930;47.412;8.790;2024-01-30T11:00:37;95963.94;;;16.29;47.67
68889;BME280;55930;47.412;8.790;2024-01-30T11:03:59;95957.22;;;18.14;44.84
68889;BME280;55930;47.412;8.790;2024-01-30T11:07:27;95963.78;;;16.62;45.98
68889;BME280;55930;47.412;8.790;2024-01-30T11:10:48;95939.59;;;18.59;43.89
68889;BME280;55930;47.412;8.790;2024-01-30T11:14:09;95937.41;;;19.42;40.39
68889;BME280;55930;47.412;8.790;2024-01-30T11:21:04;95949.00;;;20.75;37.58
68889;BME280;55930;47.412;8.790;2024-01-30T11:24:25;95953.41;;;18.78;42.28
68889;BME280;55930;47.412;8.790;2024-01-30T11:27:47;95950.06;;;18.05;43.82
68889;BME280;55930;47.412;8.790;2024-01-30T11:31:09;95940.50;;;17.58;44.45
68889;BME280;55930;47.412;8.790;2024-01-30T11:34:33;95943.97;;;14.21;47.54
68889;BME280;55930;47.412;8.790;2024-01-30T11:37:57;95945.88;;;15.23;49.04
68889;BME280;55930;47.412;8.790;2024-01-30T11:41:18;95946.22;;;14.13;51.03
68889;BME280;55930;47.412;8.790;2024-01-30T11:44:38;95942.63;;;18.46;45.05
68889;BME280;55930;47.412;8.790;2024-01-30T11:48:01;95940.94;;;16.81;45.76
68889;BME280;55930;47.412;8.790;2024-01-30T11:51:27;95936.72;;;16.74;45.56
68889;BME280;55930;47.412;8.790;2024-01-30T11:54:47;95927.53;;;17.56;44.55
68889;BME280;55930;47.412;8.790;2024-01-30T11:58:08;95927.66;;;18.40;44.04
68889;BME280;55930;47.412;8.790;2024-01-30T12:01:28;95936.97;;;17.11;45.72
68889;BME280;55930;47.412;8.790;2024-01-30T12:04:49;95935.00;;;16.92;46.21
68889;BME280;55930;47.412;8.790;2024-01-30T12:08:15;95933.63;;;15.31;47.44
68889;BME280;55930;47.412;8.790;2024-01-30T12:11:45;95929.53;;;18.02;44.96
68889;BME280;55930;47.412;8.790;2024-01-30T12:15:07;95932.66;;;16.20;47.31
68889;BME280;55930;47.412;8.790;2024-01-30T12:18:27;95926.34;;;16.53;48.59
68889;BME280;55930;47.412;8.790;2024-01-30T12:21:47;95923.78;;;16.14;49.00
68889;BME280;55930;47.412;8.790;2024-01-30T12:25:18;95925.09;;;14.85;52.48
68889;BME280;55930;47.412;8.790;2024-01-30T12:28:49;95925.22;;;15.71;51.31
68889;BME280;55930;47.412;8.790;2024-01-30T12:32:15;95924.09;;;15.63;51.81
68889;BME280;55930;47.412;8.790;2024-01-30T12:35:38;95924.69;;;15.10;53.68
68889;BME280;55930;47.412;8.790;2024-01-30T12:39:00;95909.66;;;21.82;41.72
68889;BME280;55930;47.412;8.790;2024-01-30T12:42:21;95908.41;;;22.35;39.31
68889;BME280;55930;47.412;8.790;2024-01-30T12:45:42;95910.06;;;24.53;35.34
68889;BME280;55930;47.412;8.790;2024-01-30T12:49:02;95906.22;;;25.20;33.12
68889;BME280;55930;47.412;8.790;2024-01-30T12:52:23;95912.66;;;23.33;33.82
68889;BME280;55930;47.412;8.790;2024-01-30T12:55:43;95901.34;;;24.10;34.89
68889;BME280;55930;47.412;8.790;2024-01-30T12:59:04;95909.91;;;24.77;33.66
68889;BME280;55930;47.412;8.790;2024-01-30T13:02:24;95906.56;;;24.08;34.46
68889;BME280;55930;47.412;8.790;2024-01-30T13:05:46;95906.34;;;22.76;35.95
68889;BME280;55930;47.412;8.790;2024-01-30T13:09:06;95907.63;;;23.18;34.40
68889;BME280;55930;47.412;8.790;2024-01-30T13:12:27;95916.88;;;20.38;38.84
68889;BME280;55930;47.412;8.790;2024-01-30T13:15:48;95914.06;;;21.32;36.54
68889;BME280;55930;47.412;8.790;2024-01-30T13:19:09;95915.38;;;20.98;37.66
68889;BME280;55930;47.412;8.790;2024-01-30T13:22:29;95908.84;;;19.08;41.46
68889;BME280;55930;47.412;8.790;2024-01-30T13:25:50;95904.03;;;18.44;41.83
68889;BME280;55930;47.412;8.790;2024-01-30T13:29:10;95907.66;;;18.15;43.04
68889;BME280;55930;47.412;8.790;2024-01-30T13:32:30;95906.34;;;18.05;43.28
68889;BME280;55930;47.412;8.790;2024-01-30T13:35:51;95910.94;;;17.98;43.90
68889;BME280;55930;47.412;8.790;2024-01-30T13:39:11;95914.19;;;17.82;44.00
68889;BME280;55930;47.412;8.790;2024-01-30T13:42:32;95918.63;;;17.65;43.05
68889;BME280;55930;47.412;8.790;2024-01-30T13:45:55;95911.41;;;16.17;45.56
68889;BME280;55930;47.412;8.790;2024-01-30T13:49:18;95914.81;;;16.02;46.54
68889;BME280;55930;47.412;8.790;2024-01-30T13:52:38;95913.63;;;16.48;47.43
68889;BME280;55930;47.412;8.790;2024-01-30T13:55:59;95914.25;;;16.72;45.30
68889;BME280;55930;47.412;8.790;2024-01-30T13:59:19;95919.38;;;15.73;47.51
68889;BME280;55930;47.412;8.790;2024-01-30T14:02:43;95921.66;;;17.52;45.18
68889;BME280;55930;47.412;8.790;2024-01-30T14:06:04;95914.22;;;17.62;44.42
68889;BME280;55930;47.412;8.790;2024-01-30T14:09:24;95923.09;;;16.78;45.41
68889;BME280;55930;47.412;8.790;2024-01-30T14:12:45;95913.53;;;17.87;44.27
68889;BME280;55930;47.412;8.790;2024-01-30T14:16:08;95929.16;;;17.28;45.77
68889;BME280;55930;47.412;8.790;2024-01-30T14:19:28;95930.81;;;16.41;46.00
68889;BME280;55930;47.412;8.790;2024-01-30T14:22:48;95923.91;;;17.19;45.91
68889;BME280;55930;47.412;8.790;2024-01-30T14:26:09;95925.19;;;17.44;44.87
68889;BME280;55930;47.412;8.790;2024-01-30T14:29:29;95938.63;;;16.15;47.53
68889;BME280;55930;47.412;8.790;2024-01-30T14:32:50;95934.31;;;14.51;50.77
68889;BME280;55930;47.412;8.790;2024-01-30T14:36:10;95938.63;;;14.21;52.61
68889;BME280;55930;47.412;8.790;2024-01-30T14:39:31;95946.69;;;13.75;56.01
68889;BME280;55930;47.412;8.790;2024-01-30T14:42:51;95943.31;;;14.96;56.02
68889;BME280;55930;47.412;8.790;2024-01-30T14:46:14;95933.66;;;15.55;51.68
68889;BME280;55930;47.412;8.790;2024-01-30T14:49:35;95933.91;;;14.25;57.31
68889;BME280;55930;47.412;8.790;2024-01-30T14:52:58;95932.53;;;13.11;59.33
68889;BME280;55930;47.412;8.790;2024-01-30T14:56:19;95933.59;;;12.74;61.31
68889;BME280;55930;47.412;8.790;2024-01-30T14:59:41;95933.13;;;12.35;64.02
68889;BME280;55930;47.412;8.790;2024-01-30T15:03:01;95934.78;;;12.11;67.80
68889;BME280;55930;47.412;8.790;2024-01-30T15:06:21;95939.53;;;12.16;71.58
68889;BME280;55930;47.412;8.790;2024-01-30T15:09:45;95944.59;;;11.67;79.81
68889;BME280;55930;47.412;8.790;2024-01-30T15:13:06;95943.25;;;11.62;84.84
68889;BME280;55930;47.412;8.790;2024-01-30T15:16:26;95952.28;;;11.30;89.56
68889;BME280;55930;47.412;8.790;2024-01-30T15:19:48;95947.31;;;11.07;93.23
68889;BME280;55930;47.412;8.790;2024-01-30T15:23:08;95953.59;;;10.75;100.00
68889;BME280;55930;47.412;8.790;2024-01-30T15:26:29;95960.13;;;10.32;100.00
68889;BME280;55930;47.412;8.790;2024-01-30T15:29:49;95961.63;;;10.46;100.00
68889;BME280;55930;47.412;8.790;2024-01-30T15:33:10;95957.94;;;10.15;100.00
68889;BME280;55930;47.412;8.790;2024-01-30T15:36:30;95972.31;;;9.88;100.00
68889;BME280;55930;47.412;8.790;2024-01-30T15:39:51;95967.00;;;9.27;100.00
68889;BME280;55930;47.412;8.790;2024-01-30T15:43:11;95969.66;;;9.27;100.00
68889;BME280;55930;47.412;8.790;2024-01-30T15:46:32;95977.59;;;8.95;100.00
68889;BME280;55930;47.412;8.790;2024-01-30T15:49:53;95978.16;;;8.70;100.00
68889;BME280;55930;47.412;8.790;2024-01-30T15:53:13;95979.53;;;8.58;100.00
68889;BME280;55930;47.412;8.790;2024-01-30T15:56:34;95975.72;;;8.59;100.00
68889;BME280;55930;47.412;8.790;2024-01-30T15:59:54;95982.84;;;8.23;100.00
68889;BME280;55930;47.412;8.790;2024-01-30T16:03:17;95988.28;;;8.16;100.00
68889;BME280;55930;47.412;8.790;2024-01-30T16:06:37;95992.53;;;8.10;100.00
68889;BME280;55930;47.412;8.790;2024-01-30T16:09:57;95988.84;;;7.84;100.00
68889;BME280;55930;47.412;8.790;2024-01-30T16:13:18;96003.53;;;7.65;100.00
68889;BME280;55930;47.412;8.790;2024-01-30T16:16:39;96009.13;;;7.47;100.00
68889;BME280;55930;47.412;8.790;2024-01-30T16:19:59;96006.53;;;7.44;100.00
68889;BME280;55930;47.412;8.790;2024-01-30T16:23:20;96020.56;;;7.14;100.00
68889;BME280;55930;47.412;8.790;2024-01-30T16:26:40;96027.59;;;6.97;100.00
68889;BME280;55930;47.412;8.790;2024-01-30T16:30:00;96026.16;;;6.93;100.00
68889;BME280;55930;47.412;8.790;2024-01-30T16:33:21;96034.91;;;6.86;100.00
68889;BME280;55930;47.412;8.790;2024-01-30T16:36:41;96032.69;;;6.81;100.00
68889;BME280;55930;47.412;8.790;2024-01-30T16:40:03;96038.03;;;6.77;100.00
68889;BME280;55930;47.412;8.790;2024-01-30T16:43:24;96038.84;;;6.71;100.00
68889;BME280;55930;47.412;8.790;2024-01-30T16:46:44;96036.28;;;6.67;100.00
68889;BME280;55930;47.412;8.790;2024-01-30T16:50:05;96035.88;;;6.69;100.00
68889;BME280;55930;47.412;8.790;2024-01-30T16:53:26;96034.66;;;6.46;100.00
68889;BME280;55930;47.412;8.790;2024-01-30T16:56:46;96045.97;;;6.43;100.00
68889;BME280;55930;47.412;8.790;2024-01-30T17:00:10;96042.44;;;6.23;100.00
68889;BME280;55930;47.412;8.790;2024-01-30T17:03:30;96051.13;;;6.20;100.00
68889;BME280;55930;47.412;8.790;2024-01-30T17:06:51;96048.69;;;6.02;100.00
68889;BME280;55930;47.412;8.790;2024-01-30T17:10:14;96046.56;;;5.90;100.00
68889;BME280;55930;47.412;8.790;2024-01-30T17:13:36;96051.78;;;5.94;100.00
68889;BME280;55930;47.412;8.790;2024-01-30T17:16:57;96054.94;;;5.74;100.00
68889;BME280;55930;47.412;8.790;2024-01-30T17:20:17;96057.53;;;5.78;100.00
68889;BME280;55930;47.412;8.790;2024-01-30T17:23:37;96062.47;;;5.72;100.00
68889;BME280;55930;47.412;8.790;2024-01-30T17:27:00;96075.28;;;5.70;100.00
68889;BME280;55930;47.412;8.790;2024-01-30T17:30:20;96073.00;;;5.72;100.00
68889;BME280;55930;47.412;8.790;2024-01-30T17:33:41;96078.28;;;5.69;100.00
68889;BME280;55930;47.412;8.790;2024-01-30T17:37:02;96083.94;;;5.67;100.00
68889;BME280;55930;47.412;8.790;2024-01-30T17:40:22;96095.75;;;5.49;100.00
68889;BME280;55930;47.412;8.790;2024-01-30T17:43:42;96104.41;;;5.46;100.00
68889;BME280;55930;47.412;8.790;2024-01-30T17:47:03;96107.09;;;5.42;100.00